createdAt,value
2023-04-11T00:00:42.874Z,11.20
2023-04-11T00:01:48.121Z,12.40
2023-04-11T00:02:51.698Z,12.10
2023-04-11T00:03:56.610Z,11.90
2023-04-11T00:05:00.989Z,10.30
2023-04-11T00:06:04.640Z,11.30
2023-04-11T00:07:07.641Z,11.00
2023-04-11T00:08:10.719Z,12.50
2023-04-11T00:09:13.997Z,10.70
2023-04-11T00:10:17.948Z,12.60
2023-04-11T00:11:20.508Z,11.00
2023-04-11T00:12:24.465Z,12.50
2023-04-11T00:13:27.634Z,8.40
2023-04-11T00:14:31.973Z,12.70
2023-04-11T00:15:35.210Z,12.90
2023-04-11T00:16:39.100Z,9.20
2023-04-11T00:17:47.109Z,12.00
2023-04-11T00:18:50.963Z,10.60
2023-04-11T00:19:55.263Z,11.91
2023-04-11T00:21:00.021Z,11.60
2023-04-11T00:22:04.455Z,12.10
2023-04-11T00:23:08.017Z,7.70
2023-04-11T00:24:11.042Z,10.70
2023-04-11T00:25:14.822Z,12.00
2023-04-11T00:26:18.099Z,10.70
2023-04-11T00:27:22.121Z,11.40
2023-04-11T00:28:26.541Z,11.70
2023-04-11T00:29:29.176Z,12.20
2023-04-11T00:30:32.124Z,8.60
2023-04-11T00:31:35.360Z,11.91
2023-04-11T00:32:38.894Z,10.90
2023-04-11T00:33:42.196Z,10.50
2023-04-11T00:34:45.136Z,12.20
2023-04-11T00:35:48.875Z,13.00
2023-04-11T00:36:52.554Z,11.00
2023-04-11T00:39:09.246Z,10.30
2023-04-11T00:40:14.959Z,10.55
2023-04-11T00:41:19.040Z,11.20
2023-04-11T00:42:22.381Z,10.40
2023-04-11T00:43:25.400Z,10.09
2023-04-11T00:44:28.095Z,11.30
2023-04-11T00:45:30.641Z,11.10
2023-04-11T00:46:35.421Z,10.60
2023-04-11T00:47:39.269Z,12.10
2023-04-11T00:48:43.321Z,11.30
2023-04-11T00:49:46.978Z,10.50
2023-04-11T00:50:49.890Z,11.80
2023-04-11T00:51:52.738Z,10.90
2023-04-11T00:52:55.802Z,11.00
2023-04-11T00:54:00.603Z,11.30
2023-04-11T00:55:04.037Z,11.00
2023-04-11T00:56:07.995Z,10.20
2023-04-11T00:57:11.839Z,10.30
2023-04-11T00:58:16.192Z,11.50
2023-04-11T00:59:18.869Z,11.20
2023-04-11T01:00:22.420Z,10.55
2023-04-11T01:01:25.661Z,11.10
2023-04-11T01:02:30.003Z,9.64
2023-04-11T01:03:33.891Z,12.10
2023-04-11T01:04:36.742Z,13.00
2023-04-11T01:05:39.722Z,11.60
2023-04-11T01:06:49.239Z,11.10
2023-04-11T01:07:52.225Z,12.10
2023-04-11T01:08:55.745Z,10.80
2023-04-11T01:10:00.570Z,12.40
2023-04-11T01:11:03.984Z,12.00
2023-04-11T01:12:07.046Z,11.00
2023-04-11T01:13:10.834Z,12.00
2023-04-11T01:14:15.231Z,10.90
2023-04-11T01:15:18.104Z,11.70
2023-04-11T01:16:22.394Z,9.30
2023-04-11T01:17:25.175Z,11.10
2023-04-11T01:18:28.412Z,11.10
2023-04-11T01:19:32.115Z,11.60
2023-04-11T01:20:35.792Z,12.80
2023-04-11T01:21:39.782Z,11.80
2023-04-11T01:22:43.611Z,12.30
2023-04-11T01:23:48.114Z,12.50
2023-04-11T01:24:51.886Z,11.50
2023-04-11T01:25:55.166Z,10.10
2023-04-11T01:26:57.876Z,13.09
2023-04-11T01:28:00.465Z,9.70
2023-04-11T01:29:04.592Z,11.80
2023-04-11T01:30:09.667Z,10.60
2023-04-11T01:31:12.896Z,11.30
2023-04-11T01:32:15.912Z,12.73
2023-04-11T01:33:18.789Z,11.09
2023-04-11T01:34:21.858Z,12.50
2023-04-11T01:35:25.010Z,11.20
2023-04-11T01:36:29.032Z,11.00
2023-04-11T01:37:32.509Z,10.60
2023-04-11T01:38:35.877Z,12.20
2023-04-11T01:40:52.729Z,7.20
2023-04-11T01:41:56.937Z,11.70
2023-04-11T01:43:01.904Z,11.60
2023-04-11T01:44:04.765Z,12.90
2023-04-11T01:45:10.199Z,13.40
2023-04-11T01:46:13.648Z,12.30
2023-04-11T01:47:30.027Z,12.50
2023-04-11T01:48:33.749Z,12.90
2023-04-11T01:49:37.950Z,11.90
2023-04-11T01:50:41.998Z,12.50
2023-04-11T01:51:45.718Z,11.70
2023-04-11T01:52:48.983Z,12.40
2023-04-11T01:53:52.703Z,11.55
2023-04-11T01:54:56.488Z,13.50
2023-04-11T01:55:59.088Z,11.40
2023-04-11T01:57:02.001Z,12.82
2023-04-11T01:58:04.927Z,12.64
2023-04-11T01:59:08.684Z,12.70
2023-04-11T02:00:14.341Z,12.50
2023-04-11T02:01:18.864Z,11.00
2023-04-11T02:02:21.568Z,9.40
2023-04-11T02:03:24.222Z,13.30
2023-04-11T02:04:27.693Z,13.09
2023-04-11T02:05:30.972Z,12.40
2023-04-11T02:06:35.133Z,14.80
2023-04-11T02:07:37.801Z,11.90
2023-04-11T02:08:40.369Z,11.20
2023-04-11T02:09:43.173Z,13.36
2023-04-11T02:10:47.073Z,12.18
2023-04-11T02:11:50.997Z,13.00
2023-04-11T02:12:54.677Z,11.73
2023-04-11T02:13:57.448Z,12.90
2023-04-11T02:15:01.267Z,12.70
2023-04-11T02:17:19.945Z,13.20
2023-04-11T02:18:22.495Z,11.50
2023-04-11T02:19:26.442Z,9.80
2023-04-11T02:20:30.397Z,13.00
2023-04-11T02:21:34.908Z,13.30
2023-04-11T02:22:37.703Z,14.10
2023-04-11T02:23:40.890Z,13.80
2023-04-11T02:24:44.206Z,14.36
2023-04-11T02:25:47.242Z,14.00
2023-04-11T02:26:50.894Z,11.40
2023-04-11T02:27:54.121Z,13.00
2023-04-11T02:28:59.023Z,12.90
2023-04-11T02:30:03.531Z,14.30
2023-04-11T02:31:07.422Z,10.70
2023-04-11T02:32:25.623Z,11.80
2023-04-11T02:33:28.849Z,11.90
2023-04-11T02:34:31.286Z,12.90
2023-04-11T02:35:34.968Z,13.00
2023-04-11T02:36:38.519Z,13.00
2023-04-11T02:37:41.657Z,14.10
2023-04-11T02:38:44.144Z,9.80
2023-04-11T02:39:47.893Z,12.70
2023-04-11T02:40:51.372Z,12.80
2023-04-11T02:41:54.225Z,14.30
2023-04-11T02:42:58.015Z,13.90
2023-04-11T02:44:00.601Z,12.60
2023-04-11T02:45:04.116Z,11.27
2023-04-11T02:46:12.577Z,12.70
2023-04-11T02:47:12.354Z,8.70
2023-04-11T02:48:15.555Z,13.36
2023-04-11T02:49:19.860Z,12.90
2023-04-11T02:50:25.485Z,12.64
2023-04-11T02:51:28.966Z,12.40
2023-04-11T02:52:33.058Z,11.70
2023-04-11T02:53:36.787Z,12.80
2023-04-11T02:54:40.686Z,8.70
2023-04-11T02:55:44.138Z,13.70
2023-04-11T02:56:48.907Z,12.55
2023-04-11T02:57:53.051Z,13.10
2023-04-11T02:58:57.194Z,12.40
2023-04-11T03:00:00.764Z,13.10
2023-04-11T03:01:10.069Z,12.50
2023-04-11T03:02:13.130Z,12.70
2023-04-11T03:03:16.209Z,12.00
2023-04-11T03:04:21.169Z,12.70
2023-04-11T03:05:26.691Z,14.30
2023-04-11T03:06:29.703Z,14.10
2023-04-11T03:07:34.364Z,12.00
2023-04-11T03:08:38.708Z,12.10
2023-04-11T03:09:41.503Z,11.20
2023-04-11T03:10:45.720Z,12.30
2023-04-11T03:11:48.507Z,10.90
2023-04-11T03:12:52.810Z,9.82
2023-04-11T03:13:56.793Z,11.70
2023-04-11T03:14:59.451Z,12.00
2023-04-11T03:16:02.406Z,11.10
2023-04-11T03:17:07.096Z,11.40
2023-04-11T03:18:10.043Z,10.80
2023-04-11T03:19:15.340Z,11.80
2023-04-11T03:20:19.842Z,12.60
2023-04-11T03:21:25.242Z,10.60
2023-04-11T03:22:27.956Z,9.30
2023-04-11T03:23:32.146Z,11.10
2023-04-11T03:24:49.439Z,11.70
2023-04-11T03:25:53.723Z,11.50
2023-04-11T03:26:57.235Z,11.10
2023-04-11T03:28:01.226Z,10.80
2023-04-11T03:29:04.383Z,12.00
2023-04-11T03:30:10.215Z,12.40
2023-04-11T03:31:14.853Z,11.90
2023-04-11T03:32:18.120Z,10.73
2023-04-11T03:33:22.016Z,10.80
2023-04-11T03:34:25.867Z,12.10
2023-04-11T03:35:29.845Z,11.60
2023-04-11T03:36:33.300Z,11.50
2023-04-11T03:37:38.070Z,10.00
2023-04-11T03:39:53.526Z,10.90
2023-04-11T03:42:09.384Z,12.70
2023-04-11T03:43:12.924Z,9.50
2023-04-11T03:44:16.043Z,11.40
2023-04-11T03:45:21.098Z,8.60
2023-04-11T03:46:24.924Z,11.70
2023-04-11T03:47:28.840Z,11.50
2023-04-11T03:48:31.781Z,11.10
2023-04-11T03:49:36.886Z,9.60
2023-04-11T03:50:41.254Z,10.80
2023-04-11T03:51:46.219Z,10.30
2023-04-11T03:52:50.398Z,10.70
2023-04-11T03:53:54.129Z,10.60
2023-04-11T03:55:02.841Z,8.00
2023-04-11T03:56:06.652Z,11.10
2023-04-11T03:57:11.428Z,11.10
2023-04-11T03:58:15.938Z,11.50
2023-04-11T03:59:20.169Z,10.80
2023-04-11T04:00:25.199Z,11.40
2023-04-11T04:01:32.070Z,11.00
2023-04-11T04:02:36.623Z,9.50
2023-04-11T04:03:41.065Z,10.10
2023-04-11T04:04:46.981Z,11.50
2023-04-11T04:05:58.061Z,10.50
2023-04-11T04:07:02.521Z,11.45
2023-04-11T04:08:06.995Z,8.10
2023-04-11T04:09:17.739Z,10.60
2023-04-11T04:10:25.280Z,11.00
2023-04-11T04:11:29.462Z,9.50
2023-04-11T04:12:32.581Z,9.20
2023-04-11T04:13:42.960Z,11.00
2023-04-11T04:14:47.881Z,9.90
2023-04-11T04:15:53.074Z,11.60
2023-04-11T04:16:58.658Z,8.90
2023-04-11T04:18:05.609Z,10.50
2023-04-11T04:19:13.311Z,11.60
2023-04-11T04:20:18.238Z,11.80
2023-04-11T04:21:24.647Z,11.30
2023-04-11T04:22:29.443Z,12.30
2023-04-11T04:24:47.961Z,12.10
2023-04-11T04:25:52.919Z,12.20
2023-04-11T04:26:59.764Z,12.50
2023-04-11T04:28:14.603Z,12.20
2023-04-11T04:29:19.108Z,13.70
2023-04-11T04:30:28.245Z,13.40
2023-04-11T04:31:33.080Z,12.50
2023-04-11T04:33:51.941Z,13.70
2023-04-11T04:34:57.219Z,13.90
2023-04-11T04:36:03.758Z,13.20
2023-04-11T04:37:06.943Z,11.00
2023-04-11T04:38:13.639Z,15.00
2023-04-11T04:39:29.183Z,14.00
2023-04-11T04:40:33.124Z,13.10
2023-04-11T04:41:39.334Z,14.70
2023-04-11T04:43:56.181Z,14.80
2023-04-11T04:45:01.058Z,13.00
2023-04-11T04:46:19.339Z,14.50
2023-04-11T04:47:25.943Z,15.80
2023-04-11T04:48:28.968Z,15.70
2023-04-11T04:49:31.902Z,15.80
2023-04-11T04:50:37.819Z,13.80
2023-04-11T04:52:52.864Z,15.70
2023-04-11T04:53:57.461Z,15.10
2023-04-11T04:55:00.956Z,14.90
2023-04-11T04:56:05.408Z,15.90
2023-04-11T04:57:10.097Z,12.10
2023-04-11T04:58:13.295Z,14.80
2023-04-11T04:59:16.107Z,15.40
2023-04-11T05:00:22.971Z,14.70
2023-04-11T05:01:25.961Z,14.60
2023-04-11T05:02:30.160Z,14.80
2023-04-11T05:03:37.891Z,14.40
2023-04-11T05:04:46.595Z,12.70
2023-04-11T05:05:50.028Z,12.40
2023-04-11T05:06:53.729Z,13.00
2023-04-11T05:07:57.168Z,16.10
2023-04-11T05:10:12.443Z,15.40
2023-04-11T05:11:16.117Z,12.50
2023-04-11T05:12:20.155Z,14.40
2023-04-11T05:13:23.738Z,13.60
2023-04-11T05:14:26.226Z,14.70
2023-04-11T05:15:28.802Z,12.60
2023-04-11T05:16:32.389Z,17.00
2023-04-11T05:17:35.379Z,15.40
2023-04-11T05:18:37.996Z,13.55
2023-04-11T05:19:41.271Z,13.40
2023-04-11T05:20:46.660Z,14.60
2023-04-11T05:21:51.144Z,12.00
2023-04-11T05:22:54.171Z,14.10
2023-04-11T05:23:57.115Z,16.50
2023-04-11T05:25:00.947Z,12.20
2023-04-11T05:26:05.401Z,14.80
2023-04-11T05:27:08.600Z,14.50
2023-04-11T05:28:12.406Z,13.20
2023-04-11T05:29:16.073Z,13.90
2023-04-11T05:30:20.368Z,14.80
2023-04-11T05:31:25.122Z,15.20
2023-04-11T05:32:29.663Z,12.00
2023-04-11T05:33:32.426Z,14.90
2023-04-11T05:35:51.406Z,14.40
2023-04-11T05:36:55.000Z,13.00
2023-04-11T05:37:58.864Z,14.10
2023-04-11T05:39:04.095Z,13.50
2023-04-11T05:40:09.321Z,13.90
2023-04-11T05:41:11.917Z,13.10
2023-04-11T05:42:16.655Z,14.64
2023-04-11T05:43:20.067Z,13.40
2023-04-11T05:44:23.338Z,14.30
2023-04-11T05:45:26.631Z,14.30
2023-04-11T05:46:29.594Z,13.60
2023-04-11T05:47:39.878Z,12.90
2023-04-11T05:48:43.855Z,13.20
2023-04-11T05:49:48.997Z,15.40
2023-04-11T05:50:52.647Z,14.30
2023-04-11T05:51:55.630Z,14.30
2023-04-11T05:52:58.170Z,13.30
2023-04-11T05:54:01.700Z,10.80
2023-04-11T05:55:06.215Z,14.80
2023-04-11T05:56:09.227Z,12.80
2023-04-11T05:57:12.782Z,12.00
2023-04-11T05:58:16.349Z,11.80
2023-04-11T05:59:23.922Z,14.00
2023-04-11T06:00:25.532Z,13.90
2023-04-11T06:01:29.617Z,13.80
2023-04-11T06:02:33.584Z,12.30
2023-04-11T06:03:45.275Z,14.20
2023-04-11T06:04:48.560Z,13.40
2023-04-11T06:05:54.610Z,13.90
2023-04-11T06:06:57.819Z,12.90
2023-04-11T06:09:15.619Z,13.20
2023-04-11T06:10:19.248Z,11.50
2023-04-11T06:11:22.051Z,13.30
2023-04-11T06:12:25.496Z,14.00
2023-04-11T06:13:29.878Z,12.40
2023-04-11T06:14:32.475Z,13.50
2023-04-11T06:16:49.890Z,13.30
2023-04-11T06:17:54.055Z,11.40
2023-04-11T06:18:56.709Z,10.90
2023-04-11T06:20:03.470Z,12.90
2023-04-11T06:21:06.281Z,11.80
2023-04-11T06:22:09.875Z,12.60
2023-04-11T06:23:12.731Z,9.90
2023-04-11T06:24:17.213Z,12.55
2023-04-11T06:25:21.849Z,13.30
2023-04-11T06:26:24.579Z,13.20
2023-04-11T06:27:29.165Z,13.20
2023-04-11T06:28:32.434Z,12.10
2023-04-11T06:29:37.156Z,13.60
2023-04-11T06:30:40.537Z,13.50
2023-04-11T06:31:43.136Z,11.00
2023-04-11T06:32:46.138Z,12.91
2023-04-11T06:33:48.985Z,11.90
2023-04-11T06:34:51.819Z,12.60
2023-04-11T06:35:55.598Z,12.73
2023-04-11T06:36:58.540Z,12.60
2023-04-11T06:38:01.920Z,11.90
2023-04-11T06:39:05.109Z,12.90
2023-04-11T06:40:08.782Z,12.09
2023-04-11T06:41:11.322Z,11.00
2023-04-11T06:42:17.142Z,12.70
2023-04-11T06:43:21.623Z,12.20
2023-04-11T06:44:25.386Z,11.70
2023-04-11T06:45:29.019Z,12.00
2023-04-11T06:46:36.631Z,13.10
2023-04-11T06:47:41.417Z,11.40
2023-04-11T06:48:44.477Z,11.60
2023-04-11T06:49:47.663Z,12.30
2023-04-11T06:50:50.789Z,12.80
2023-04-11T06:51:54.186Z,12.80
2023-04-11T06:52:57.993Z,13.10
2023-04-11T06:54:02.551Z,11.70
2023-04-11T06:55:06.820Z,11.70
2023-04-11T06:56:10.314Z,10.00
2023-04-11T06:57:14.639Z,13.50
2023-04-11T06:58:17.921Z,7.70
2023-04-11T06:59:22.263Z,11.10
2023-04-11T07:00:25.824Z,12.70
2023-04-11T07:02:44.192Z,11.30
2023-04-11T07:03:47.377Z,11.60
2023-04-11T07:04:51.145Z,13.10
2023-04-11T07:05:54.703Z,11.70
2023-04-11T07:06:57.817Z,11.20
2023-04-11T07:08:00.822Z,15.36
2023-04-11T07:09:04.537Z,13.09
2023-04-11T07:10:08.689Z,12.80
2023-04-11T07:11:12.424Z,15.40
2023-04-11T07:12:15.603Z,18.20
2023-04-11T07:13:21.008Z,16.60
2023-04-11T07:14:24.023Z,20.50
2023-04-11T07:15:28.608Z,22.60
2023-04-11T07:16:32.733Z,21.60
2023-04-11T07:17:36.438Z,24.20
2023-04-11T07:18:39.745Z,25.80
2023-04-11T07:19:43.408Z,20.00
2023-04-11T07:20:48.014Z,23.60
2023-04-11T07:21:51.059Z,28.70
2023-04-11T07:22:55.672Z,23.00
2023-04-11T07:23:59.876Z,25.50
2023-04-11T07:25:05.584Z,25.90
2023-04-11T07:26:08.577Z,22.10
2023-04-11T07:27:13.567Z,25.64
2023-04-11T07:28:17.268Z,27.30
2023-04-11T07:29:20.857Z,25.30
2023-04-11T07:30:23.703Z,26.00
2023-04-11T07:31:26.739Z,24.50
2023-04-11T07:32:30.479Z,26.70
2023-04-11T07:33:36.826Z,26.00
2023-04-11T07:34:40.537Z,27.10
2023-04-11T07:35:44.231Z,26.30
2023-04-11T07:36:50.102Z,28.10
2023-04-11T07:37:53.148Z,26.80
2023-04-11T07:38:55.857Z,27.91
2023-04-11T07:39:58.902Z,27.10
2023-04-11T07:41:03.154Z,27.70
2023-04-11T07:42:06.431Z,14.40
2023-04-11T07:43:10.491Z,24.50
2023-04-11T07:44:13.696Z,27.00
2023-04-11T07:45:16.898Z,27.45
2023-04-11T07:46:20.453Z,27.70
2023-04-11T07:47:24.115Z,28.00
2023-04-11T07:48:27.461Z,26.36
2023-04-11T07:49:30.053Z,28.50
2023-04-11T07:50:32.590Z,27.70
2023-04-11T07:51:35.173Z,23.50
2023-04-11T07:52:37.808Z,26.90
2023-04-11T07:53:41.349Z,26.30
2023-04-11T07:54:43.883Z,26.67
2023-04-11T07:55:46.420Z,25.90
2023-04-11T07:56:49.087Z,24.50
2023-04-11T07:57:51.718Z,25.60
2023-04-11T07:58:54.277Z,25.20
2023-04-11T08:00:03.440Z,24.60
2023-04-11T08:01:20.173Z,25.80
2023-04-11T08:02:22.995Z,24.20
2023-04-11T08:03:27.190Z,24.64
2023-04-11T08:04:33.483Z,25.60
2023-04-11T08:05:37.001Z,25.80
2023-04-11T08:06:40.904Z,23.50
2023-04-11T08:07:43.608Z,25.40
2023-04-11T08:08:47.191Z,24.60
2023-04-11T08:09:50.854Z,23.40
2023-04-11T08:10:54.895Z,24.40
2023-04-11T08:11:58.201Z,25.10
2023-04-11T08:13:00.680Z,25.00
2023-04-11T08:14:03.934Z,24.60
2023-04-11T08:15:07.709Z,24.91
2023-04-11T08:16:11.287Z,2.70
2023-04-11T08:17:25.118Z,23.73
2023-04-11T08:18:21.369Z,24.50
2023-04-11T08:19:24.259Z,25.00
2023-04-11T08:20:29.787Z,23.60
2023-04-11T08:21:32.896Z,22.50
2023-04-11T08:22:37.040Z,22.30
2023-04-11T08:23:41.917Z,23.60
2023-04-11T08:24:44.502Z,23.40
2023-04-11T08:25:48.315Z,15.82
2023-04-11T08:26:51.153Z,22.00
2023-04-11T08:27:53.689Z,21.60
2023-04-11T08:28:56.990Z,22.30
2023-04-11T08:29:59.968Z,20.36
2023-04-11T08:31:03.563Z,19.82
2023-04-11T08:32:06.354Z,23.30
2023-04-11T08:33:09.647Z,21.40
2023-04-11T08:34:12.405Z,22.30
2023-04-11T08:35:16.030Z,18.40
2023-04-11T08:36:18.637Z,22.55
2023-04-11T08:37:22.358Z,23.36
2023-04-11T08:38:26.186Z,23.40
2023-04-11T08:39:29.927Z,23.10
2023-04-11T08:40:34.130Z,20.80
2023-04-11T08:41:38.366Z,19.30
2023-04-11T08:42:42.324Z,19.70
2023-04-11T08:43:46.903Z,20.00
2023-04-11T08:45:00.294Z,17.10
2023-04-11T08:46:04.106Z,19.30
2023-04-11T08:47:10.778Z,19.40
2023-04-11T08:48:13.296Z,19.82
2023-04-11T08:49:16.000Z,18.40
2023-04-11T08:50:19.384Z,19.50
2023-04-11T08:51:23.371Z,19.90
2023-04-11T08:52:26.490Z,17.70
2023-04-11T08:53:30.990Z,20.20
2023-04-11T08:54:34.645Z,19.30
2023-04-11T08:56:58.966Z,18.70
2023-04-11T08:58:03.239Z,18.80
2023-04-11T08:59:05.919Z,19.80
2023-04-11T09:00:17.617Z,18.70
2023-04-11T09:01:33.381Z,18.40
2023-04-11T09:02:58.370Z,18.10
2023-04-11T09:04:02.019Z,19.00
2023-04-11T09:05:07.992Z,18.90
2023-04-11T09:06:13.163Z,15.20
2023-04-11T09:07:16.543Z,17.70
2023-04-11T09:08:20.104Z,15.50
2023-04-11T09:09:30.335Z,18.00
2023-04-11T09:10:36.094Z,17.10
2023-04-11T09:11:52.495Z,15.70
2023-04-11T09:12:55.980Z,14.30
2023-04-11T09:14:10.396Z,16.90
2023-04-11T09:15:21.183Z,16.30
2023-04-11T09:16:24.701Z,15.30
2023-04-11T09:17:31.283Z,14.80
2023-04-11T09:18:36.023Z,14.90
2023-04-11T09:19:40.225Z,16.50
2023-04-11T09:20:43.923Z,14.60
2023-04-11T09:21:49.967Z,14.70
2023-04-11T09:22:53.342Z,13.00
2023-04-11T09:24:14.040Z,14.80
2023-04-11T09:25:18.180Z,12.50
2023-04-11T09:26:26.172Z,13.20
2023-04-11T09:27:29.627Z,11.20
2023-04-11T09:28:43.719Z,13.10
2023-04-11T09:29:47.350Z,12.50
2023-04-11T09:30:55.272Z,11.90
2023-04-11T09:31:57.868Z,12.30
2023-04-11T09:33:03.646Z,12.67
2023-04-11T09:34:06.222Z,12.50
2023-04-11T09:36:27.057Z,10.30
2023-04-11T09:37:33.389Z,10.33
2023-04-11T09:38:36.722Z,11.10
2023-04-11T09:39:40.102Z,10.70
2023-04-11T09:40:43.784Z,12.00
2023-04-11T09:41:46.350Z,11.73
2023-04-11T09:44:10.404Z,10.80
2023-04-11T09:45:20.412Z,10.10
2023-04-11T09:46:24.627Z,11.50
2023-04-11T09:47:33.717Z,11.60
2023-04-11T09:48:46.393Z,11.70
2023-04-11T09:49:42.898Z,11.00
2023-04-11T09:50:45.594Z,10.91
2023-04-11T09:51:49.310Z,10.30
2023-04-11T09:52:52.432Z,11.50
2023-04-11T09:53:55.978Z,10.40
2023-04-11T09:55:00.540Z,10.00
2023-04-11T09:56:03.968Z,9.80
2023-04-11T09:57:06.956Z,8.30
2023-04-11T09:58:09.778Z,10.80
2023-04-11T09:59:13.918Z,8.80
2023-04-11T10:00:23.929Z,8.90
2023-04-11T10:01:27.676Z,9.20
2023-04-11T10:02:31.793Z,9.20
2023-04-11T10:03:36.291Z,10.80
2023-04-11T10:04:40.700Z,9.10
2023-04-11T10:05:44.732Z,9.20
2023-04-11T10:07:08.517Z,9.90
2023-04-11T10:08:19.030Z,10.20
2023-04-11T10:09:23.152Z,9.90
2023-04-11T10:10:26.491Z,11.20
2023-04-11T10:11:29.822Z,10.30
2023-04-11T10:12:32.747Z,10.10
2023-04-11T10:13:43.002Z,11.18
2023-04-11T10:14:46.111Z,9.60
2023-04-11T10:16:09.792Z,10.40
2023-04-11T10:17:18.640Z,9.40
2023-04-11T10:18:22.095Z,9.00
2023-04-11T10:19:26.591Z,10.10
2023-04-11T10:20:35.476Z,8.40
2023-04-11T10:21:40.300Z,9.10
2023-04-11T10:22:51.261Z,9.90
2023-04-11T10:24:11.229Z,9.10
2023-04-11T10:25:24.164Z,10.60
2023-04-11T10:26:50.277Z,10.80
2023-04-11T10:27:56.782Z,9.90
2023-04-11T10:28:59.850Z,8.70
2023-04-11T10:30:04.974Z,9.70
2023-04-11T10:31:17.094Z,9.40
2023-04-11T10:32:21.224Z,10.30
2023-04-11T10:33:26.506Z,11.00
2023-04-11T10:34:29.225Z,5.70
2023-04-11T10:35:31.986Z,9.10
2023-04-11T10:38:04.238Z,9.20
2023-04-11T10:39:07.693Z,10.30
2023-04-11T10:40:12.432Z,9.90
2023-04-11T10:41:33.343Z,11.70
2023-04-11T10:46:19.537Z,10.30
2023-04-11T10:47:25.215Z,10.90
2023-04-11T10:48:28.290Z,4.10
2023-04-11T10:50:50.055Z,10.30
2023-04-11T10:51:52.705Z,10.73
2023-04-11T10:53:04.020Z,11.40
2023-04-11T10:54:06.729Z,10.80
2023-04-11T10:55:19.230Z,10.10
2023-04-11T10:56:46.619Z,10.30
2023-04-11T10:58:08.787Z,11.10
2023-04-11T11:00:56.994Z,7.60
2023-04-11T11:02:01.765Z,9.80
2023-04-11T11:03:04.802Z,9.40
2023-04-11T11:04:09.017Z,10.90
2023-04-11T11:05:17.998Z,11.40
2023-04-11T11:06:20.792Z,10.70
2023-04-11T11:07:24.739Z,10.27
2023-04-11T11:08:30.962Z,10.30
2023-04-11T11:10:49.869Z,11.10
2023-04-11T11:13:20.232Z,9.00
2023-04-11T11:14:31.348Z,9.82
2023-04-11T11:15:38.535Z,7.40
2023-04-11T11:16:45.126Z,9.10
2023-04-11T11:17:48.781Z,10.30
2023-04-11T11:18:58.866Z,9.30
2023-04-11T11:20:02.378Z,10.80
2023-04-11T11:21:11.312Z,9.90
2023-04-11T11:23:36.940Z,10.70
2023-04-11T11:24:40.789Z,10.40
2023-04-11T11:25:47.739Z,9.40
2023-04-11T11:26:50.665Z,9.80
2023-04-11T11:29:34.110Z,11.00
2023-04-11T11:31:54.176Z,10.50
2023-04-11T11:34:18.484Z,0.64
2023-04-11T11:35:14.024Z,9.60
2023-04-11T11:36:17.726Z,8.50
2023-04-11T11:37:21.713Z,10.55
2023-04-11T11:38:27.530Z,10.30
2023-04-11T11:39:31.883Z,10.40
2023-04-11T11:40:34.894Z,11.00
2023-04-11T11:41:37.813Z,9.55
2023-04-11T11:42:42.438Z,11.36
2023-04-11T11:43:46.352Z,9.10
2023-04-11T11:44:51.081Z,9.00
2023-04-11T11:46:08.937Z,10.60
2023-04-11T11:47:15.804Z,9.50
2023-04-11T11:48:25.075Z,10.70
2023-04-11T11:50:42.630Z,8.10
2023-04-11T11:51:47.436Z,9.30
2023-04-11T11:52:51.078Z,12.40
2023-04-11T11:54:09.870Z,14.80
2023-04-11T11:55:24.020Z,13.70
2023-04-11T11:56:28.082Z,14.90
2023-04-11T11:57:37.142Z,15.50
2023-04-11T11:58:44.429Z,15.70
2023-04-11T11:59:58.851Z,14.70
2023-04-11T12:01:01.890Z,14.30
2023-04-11T12:02:04.911Z,14.09
2023-04-11T12:03:11.198Z,15.10
2023-04-11T12:04:15.710Z,13.80
2023-04-11T12:05:20.900Z,11.50
2023-04-11T12:06:30.489Z,15.10
2023-04-11T12:07:35.015Z,14.60
2023-04-11T12:08:42.421Z,7.70
2023-04-11T12:09:49.614Z,13.30
2023-04-11T12:10:53.436Z,15.30
2023-04-11T12:11:56.382Z,14.90
2023-04-11T12:12:59.134Z,15.00
2023-04-11T12:14:03.281Z,14.30
2023-04-11T12:15:17.048Z,14.20
2023-04-11T12:16:22.920Z,14.70
2023-04-11T12:17:36.298Z,13.60
2023-04-11T12:18:41.950Z,14.60
2023-04-11T12:19:45.239Z,13.90
2023-04-11T12:20:48.974Z,13.50
2023-04-11T12:21:53.026Z,13.00
2023-04-11T12:22:56.671Z,13.60
2023-04-11T12:24:00.753Z,12.50
2023-04-11T12:25:11.784Z,13.40
2023-04-11T12:26:16.289Z,14.00
2023-04-11T12:27:19.389Z,14.20
2023-04-11T12:28:22.321Z,12.20
2023-04-11T12:29:26.478Z,14.50
2023-04-11T12:30:30.190Z,12.40
2023-04-11T12:31:35.351Z,13.20
2023-04-11T12:32:39.427Z,11.00
2023-04-11T12:33:43.840Z,11.20
2023-04-11T12:34:46.915Z,11.60
2023-04-11T12:35:50.593Z,11.60
2023-04-11T12:36:53.914Z,11.90
2023-04-11T12:37:57.084Z,10.90
2023-04-11T12:39:08.467Z,9.40
2023-04-11T12:40:12.758Z,12.90
2023-04-11T12:42:26.717Z,10.10
2023-04-11T12:43:27.277Z,10.50
2023-04-11T12:44:30.093Z,9.90
2023-04-11T12:45:33.159Z,9.82
2023-04-11T12:46:36.060Z,9.60
2023-04-11T12:47:39.859Z,10.18
2023-04-11T12:48:42.774Z,9.70
2023-04-11T12:49:45.612Z,10.64
2023-04-11T12:50:48.438Z,9.45
2023-04-11T12:51:51.694Z,8.50
2023-04-11T12:52:56.253Z,9.60
2023-04-11T12:53:59.735Z,10.20
2023-04-11T12:55:04.739Z,11.80
2023-04-11T12:56:08.784Z,11.10
2023-04-11T12:57:12.498Z,11.50
2023-04-11T12:58:15.943Z,12.90
2023-04-11T12:59:20.294Z,12.00
2023-04-11T13:00:23.600Z,13.10
2023-04-11T13:01:26.646Z,11.20
2023-04-11T13:02:38.082Z,11.50
2023-04-11T13:03:37.586Z,11.50
2023-04-11T13:04:41.089Z,10.90
2023-04-11T13:05:44.871Z,11.30
2023-04-11T13:06:48.166Z,10.60
2023-04-11T13:07:55.034Z,11.80
2023-04-11T13:08:57.865Z,10.60
2023-04-11T13:10:03.197Z,11.20
2023-04-11T13:11:07.737Z,10.10
2023-04-11T13:12:11.699Z,11.40
2023-04-11T13:13:18.399Z,10.40
2023-04-11T13:14:20.518Z,11.00
2023-04-11T13:15:23.762Z,10.00
2023-04-11T13:16:27.176Z,11.30
2023-04-11T13:17:31.932Z,7.40
2023-04-11T13:18:37.710Z,10.60
2023-04-11T13:19:41.150Z,11.60
2023-04-11T13:21:58.288Z,10.10
2023-04-11T13:23:02.979Z,10.10
2023-04-11T13:24:06.705Z,9.90
2023-04-11T13:25:11.046Z,9.00
2023-04-11T13:26:14.927Z,11.20
2023-04-11T13:27:18.603Z,11.40
2023-04-11T13:28:21.546Z,10.20
2023-04-11T13:29:25.326Z,9.80
2023-04-11T13:30:28.519Z,9.70
2023-04-11T13:31:32.042Z,9.60
2023-04-11T13:32:36.012Z,10.90
2023-04-11T13:33:42.313Z,9.40
2023-04-11T13:34:47.426Z,9.00
2023-04-11T13:35:51.308Z,8.10
2023-04-11T13:36:55.456Z,7.80
2023-04-11T13:37:59.127Z,7.90
2023-04-11T13:39:02.961Z,10.20
2023-04-11T13:40:09.760Z,9.40
2023-04-11T13:41:14.711Z,9.10
2023-04-11T13:42:18.564Z,9.80
2023-04-11T13:43:21.379Z,6.90
2023-04-11T13:44:24.936Z,8.60
2023-04-11T13:45:28.275Z,8.80
2023-04-11T13:46:32.478Z,9.10
2023-04-11T13:47:38.408Z,9.40
2023-04-11T13:48:41.244Z,9.60
2023-04-11T13:49:44.758Z,8.40
2023-04-11T13:50:47.651Z,8.90
2023-04-11T13:51:53.784Z,9.80
2023-04-11T13:52:58.069Z,7.50
2023-04-11T13:54:01.086Z,8.10
2023-04-11T13:55:05.451Z,9.30
2023-04-11T13:56:09.675Z,8.80
2023-04-11T13:57:12.966Z,7.30
2023-04-11T13:58:17.274Z,7.40
2023-04-11T13:59:20.209Z,8.40
2023-04-11T14:00:23.599Z,7.60
2023-04-11T14:01:26.511Z,8.60
2023-04-11T14:02:31.840Z,7.00
2023-04-11T14:03:35.435Z,7.60
2023-04-11T14:04:38.704Z,7.20
2023-04-11T14:05:42.498Z,8.20
2023-04-11T14:07:57.737Z,7.50
2023-04-11T14:09:00.556Z,9.27
2023-04-11T14:10:04.822Z,8.20
2023-04-11T14:11:09.892Z,8.70
2023-04-11T14:12:14.405Z,4.10
2023-04-11T14:13:17.625Z,8.30
2023-04-11T14:14:20.654Z,7.64
2023-04-11T14:15:24.515Z,9.80
2023-04-11T14:16:27.773Z,7.90
2023-04-11T14:17:32.882Z,8.60
2023-04-11T14:18:37.194Z,8.60
2023-04-11T14:19:40.188Z,8.10
2023-04-11T14:20:43.230Z,5.60
2023-04-11T14:21:46.592Z,8.45
2023-04-11T14:22:49.994Z,8.10
2023-04-11T14:23:52.744Z,8.20
2023-04-11T14:24:56.371Z,5.00
2023-04-11T14:25:59.598Z,8.70
2023-04-11T14:27:02.525Z,8.20
2023-04-11T14:28:05.793Z,9.09
2023-04-11T14:29:10.369Z,9.60
2023-04-11T14:30:15.558Z,8.90
2023-04-11T14:31:20.479Z,8.30
2023-04-11T14:32:39.547Z,8.60
2023-04-11T14:33:44.505Z,6.20
2023-04-11T14:34:48.838Z,8.70
2023-04-11T14:35:51.550Z,9.00
2023-04-11T14:36:56.205Z,7.45
2023-04-11T14:37:59.057Z,8.30
2023-04-11T14:39:04.804Z,8.64
2023-04-11T14:40:11.128Z,8.20
2023-04-11T14:41:14.855Z,8.00